Revelstoke Airport
CYRV : now visible

Airfield :











YOU CAN JOIN US ON...

 
LOGIN :

Register | Disclaimer

   EN    FR    IT 

 









Legend :    VFR   Marginal VFR   IFR   Intensive IFR   Very Intensive IFR
Visi :
Ceiling :
>= 8 km
>= 3000ft
5 to 8 km
1000 to 3000 ft
1500m to 5 km
500 to 1000 ft
800 to 1500m
200 to 500 ft
< 800m
< 200 ft
Symbols :   Thunderstorms  Fog  Heavy snow  Heavy precipitations  Wind > 20 kt






- Airport Elevation : 1459 ft
- IATA code : YRV


CYRV - Revelstoke

CURRENT METAR :
  • 080807Z AUTO 01004KT 350V060 2 1/2SM BR OVC002 M00/M00 A2975 RMK SLP095

EXPIRED METARs :
  • 080733Z AUTO VRB05KT 5SM BR SCT004 BKN021 BKN038 00/00 A2975 RMK SLP095
  • 080718Z AUTO 07003KT 010V090 6SM BR SCT004 BKN007 BKN019 OVC130 01/01 A2975 RMK SLP094
  • 080700Z AUTO VRB02KT 4SM BR SCT004 BKN019 BKN038 OVC130 00/00 A2974 RMK SLP092
  • 080651Z AUTO 00000KT 5SM BR FEW006 BKN017 BKN038 OVC130 00/00 A2974 RMK SLP092
  • 080648Z AUTO 31003KT 290V060 6SM BR FEW006 BKN017 BKN036 OVC130 00/00 A2974 RMK SLP092
  • 080625Z AUTO VRB02KT 3SM -RA BR SCT010 OVC013 00/00 A2975 RMK SLP093
  • 080616Z AUTO 34002KT 3SM -RA -UP BR FEW004 OVC013 01/01 A2975 RMK SLP093
  • 080600Z AUTO VRB02KT 3SM -RA BR FEW004 OVC010 00/00 A2974 RMK SLP091
  • 080548Z AUTO 33003KT 2 1/2SM -RA BR FEW004 BKN008 OVC014 00/00 A2974 RMK SLP090
  • 080540Z AUTO 00000KT 3SM -RA BR BKN008 OVC014 00/00 A2973 RMK VIS VRB 1 3/4-3 SLP089

TAF N/A



MET'MAP, your aeronautical weather chart ! - Copyright ORBIFLY December 2007 - Disclaimer

ORBIFLY MET'MAP TEAM :

Programming & Development : Alexandra Zaïnal
Concept & original design : Baudouin d'Aumeries
Assistance for programming : Marc-Olivier Méhu
Technical & hardware support : Manuel Goepfert

Contact : metmap@orbifly.com




SOURCES & CREDITS :

   NOAA       Earth
Advisory